首页
METAR-TAF:

METAR-TAF

机场 :

South Alabama Regional Airport

Andalusia, 阿拉巴马州, 美国

纬度: 31-18-00N, 经度: 086-23-00W, 海拔: 94米

当前天气观测

该预报发布于27分钟前的01:56 UTC
风速4节,风向西北
温度 12°C
湿度 58%
气压 1018 hPa
能見度: 16.1公里
天空无云

METAR: K79J 170156Z AUTO 32004KT 10SM CLR 12/04 A3005 RMK AO2 SLP175 T01170044

时间: 20:23 (02:23 UTC)


TAF: 丢失

超过4000个机场的气象观测和天气预报(METAR&TAF报告)。

可查询的气象台以黄色和红色小点在地图上表示。

将鼠标移到小点上方,可查看气象台名称。

然后点击查看天气观测和预报。

如需切换地图:点击带黑十字的绿色按钮放大地图;点击带横线的绿色按钮缩小地图;或者点击绿色箭头查看邻近地区的地图。


METAR-TAF: